• Join FlightAware (Why Join?)
  • Login
  • US Flag 
03:22PM EDT


 

Airport Tracker/Info


-or-


 

Live Flight TrackerFlight Track Log ✈ BOE5 ✈ 07-Jun-2013 ✈ KBFI - KMWH

Flight Track Log - Related Links

Times and Time Zones

All times are in EDT time to prevent confusion due to time zone crossing. See the BOE5 flight status page for this flight to view local times or setup timezone preferences in your user account.

Time Position Orientation Groundspeed Altitude Reporting Facility
EDT Latitude Longitude Course Direction KTS MPH feet Rate Location/Type
12:55PM 47.1150 -122.4758 20° North 150 173 900  Level Seattle Center
12:57PM 47.1217 -122.3179 86° East  Level Estimated
01:04PM 47.1552 -121.4442 86° East  Level Estimated
01:05PM 47.1594 -121.3193 87° East  Level Estimated
01:06PM 47.1635 -121.1944 87° East  Level Estimated
01:07PM 47.1674 -121.0694 87° East  Level Estimated
01:08PM 47.1713 -120.9445 87° East  Level Estimated
01:09PM 47.1749 -120.8195 87° East  Level Estimated
01:10PM 47.1785 -120.6945 88° East  Level Estimated
01:11PM 47.1819 -120.5695 88° East  Level Estimated
01:12PM 47.1852 -120.4445 88° East  Level Estimated
01:13PM 47.1883 -120.3194 88° East  Level Estimated
01:14PM 47.1913 -120.1944 88° East  Level Estimated
01:15PM 47.1942 -120.0693 88° East  Level Estimated
01:16PM 47.1970 -119.9443 88° East  Level Estimated
01:17PM 47.1996 -119.8192 88° East  Level Estimated
01:18PM 47.2020 -119.6941 88° East  Level Estimated
01:19PM 47.2043 -119.5689 88° East  Level Estimated
01:20PM 47.2065 -119.4438 88° East  Level Estimated
01:21PM 47.2086 -119.3191 89° East  Level Estimated
01:22PM 47.2086 -119.3191 13° North  Level Estimated
01:23PM 47.2086 -119.3191 13° North  Level Estimated
01:24PM 47.2086 -119.3191 13° North  Level Estimated
01:25PM 47.2086 -119.3191 13° North  Level Estimated
01:26PM 47.2086 -119.3191 13° North  Level Estimated
01:27PM 47.2086 -119.3191 13° North  Level Estimated
01:28PM 47.2086 -119.3191 13° North  Level Estimated
01:29PM 47.2086 -119.3191 13° North  Level Estimated
01:30PM 47.2086 -119.3191 13° North  Level Estimated
01:31PM 47.2086 -119.3191 13° North  Level Estimated
01:31PM 47.4989 -122.2719 142° Southeast 163 188 2,400  Level Seattle Center
01:31PM 47.4756 -122.2431 140° Southeast 188 216 3,800 2,340 Climbing Seattle Center
01:32PM 47.2086 -119.3191 13° North  Level Estimated
01:32PM 47.4506 -122.2133 141° Southeast 260 299 4,800  Level Seattle Center
01:32PM 47.4389 -122.1533 106° East 283 326 6,600 3,300 Climbing Seattle Center
01:33PM 47.2086 -119.3191 13° North  Level Estimated
01:33PM 47.4383 -122.0956 91° East 323 372 8,200  Level Seattle Center
01:33PM 47.4369 -122.0267 92° East 308 354 10,100 2,880 Climbing Seattle Center
01:34PM 47.2086 -119.3191 13° North  Level Estimated
01:34PM 47.4333 -121.8917 92° East 329 379 12,800  Level Seattle Center
01:35PM 47.2086 -119.3191 13° North  Level Estimated
01:35PM 47.4306 -121.7522 92° East 336 387 13,000  Level Seattle Center
01:36PM 47.2086 -119.3191 13° North  Level Estimated
01:37PM 47.4214 -121.6181 96° East 305 351 13,000  Level Seattle Center
01:38PM 47.4106 -121.4944 97° East 306 352 13,000 720 Level Seattle Center
01:39PM 47.4247 -121.3622 81° East 327 376 14,500 1,500 Climbing Seattle Center
01:40PM 47.4422 -121.2161 80° East 354 407 16,100 780 Climbing Seattle Center
01:41PM 47.4556 -121.0869 81° East 323 372 16,100 -60 Level Seattle Center
01:42PM 47.4522 -120.9822 93° East 255 293 16,000 -60 Descending Seattle Center
01:43PM 47.4378 -120.8894 103° East 233 268 16,000 -300 Level Seattle Center
01:44PM 47.4250 -120.7975 102° East 236 272 15,500 -960 Descending Seattle Center
01:45PM 47.4111 -120.7036 102° East 233 268 14,100 -660 Descending Seattle Center
01:46PM 47.3956 -120.6003 103° East 218 251 14,200 -60 Climbing Seattle Center
01:47PM 47.3833 -120.5136 102° East 217 250 14,000 540 Descending Seattle Center
01:48PM 47.3686 -120.4308 105° East 200 230 15,300 780 Climbing Seattle Center
01:49PM 47.3472 -120.3433 110° East 229 264 15,700 -360 Climbing Seattle Center
01:50PM 47.3203 -120.2539 114° Southeast 239 275 14,600 -1,020 Descending Seattle Center
01:51PM 47.2800 -120.1686 125° Southeast 256 295 13,700 -1,380 Descending Seattle Center
01:52PM 47.2547 -120.0506 107° East 286 329 11,800 -1,860 Descending Seattle Center
01:53PM 47.2636 -119.9214 84° East 313 360 10,000 -1,800 Descending Seattle Center
01:54PM 47.2747 -119.7903 83° East 321 369 8,200 -1,440 Descending Seattle Center
01:55PM 47.2778 -119.6633 88° East 312 359 7,100 -900 Descending Seattle Center
01:56PM 47.2686 -119.5458 97° East 291 335 6,400 -780 Descending Seattle Center
01:57PM 47.2786 -119.4314 83° East 263 303 5,600 -960 Descending Seattle Center
01:58PM 47.3064 -119.3583 61° Northeast 208 239 4,500 -1,380 Descending Seattle Center
01:59PM 47.2661 -119.3514 173° South 169 194 2,800 -1,620 Descending Seattle Center
02:00PM 47.2217 -119.3244 158° South 162 186 1,200 -840 Descending Seattle Center
02:01PM 47.1847 -119.3078 163° South 159 183 1,200  Level Seattle Center
02:03PM 47.2000 -119.3167 161° South  Level FlightAware Approximate